createdAt,value
2023-03-26T00:01:27.789Z,94442.00
2023-03-26T00:05:27.772Z,94442.00
2023-03-26T00:09:27.730Z,94438.00
2023-03-26T00:13:27.699Z,94436.00
2023-03-26T00:17:27.680Z,94444.00
2023-03-26T00:21:27.693Z,94438.00
2023-03-26T00:25:27.642Z,94436.00
2023-03-26T00:29:27.602Z,94436.00
2023-03-26T00:33:27.625Z,94446.00
2023-03-26T00:37:27.591Z,94442.00
2023-03-26T00:41:27.578Z,94422.00
2023-03-26T00:45:27.578Z,94420.00
2023-03-26T00:49:27.601Z,94424.00
2023-03-26T00:53:27.570Z,94422.00
2023-03-26T00:57:35.601Z,94420.00
2023-03-26T01:01:29.135Z,94414.00
2023-03-26T01:05:27.517Z,94412.00
2023-03-26T01:09:27.469Z,94404.00
2023-03-26T01:13:27.457Z,94399.00
2023-03-26T01:17:27.395Z,94401.00
2023-03-26T01:21:27.358Z,94399.00
2023-03-26T01:25:27.301Z,94408.00
2023-03-26T01:29:27.240Z,94406.00
2023-03-26T01:33:27.299Z,94395.00
2023-03-26T01:37:27.202Z,94389.00
2023-03-26T01:41:27.237Z,94383.00
2023-03-26T01:45:27.281Z,94371.00
2023-03-26T01:49:27.348Z,94385.00
2023-03-26T01:53:27.341Z,94383.00
2023-03-26T01:57:27.403Z,94385.00
2023-03-26T02:01:27.490Z,94389.00
2023-03-26T02:05:27.569Z,94389.00
2023-03-26T02:09:27.641Z,94393.00
2023-03-26T02:13:27.649Z,94393.00
2023-03-26T02:17:27.748Z,94403.00
2023-03-26T02:21:27.797Z,94399.00
2023-03-26T02:25:27.882Z,94389.00
2023-03-26T02:29:27.964Z,94391.00
2023-03-26T02:33:28.047Z,94391.00
2023-03-26T02:37:28.117Z,94385.00
2023-03-26T02:41:28.188Z,94381.00
2023-03-26T02:45:28.345Z,94373.00
2023-03-26T02:49:28.361Z,94369.00
2023-03-26T02:53:28.506Z,94371.00
2023-03-26T02:57:28.593Z,94381.00
2023-03-26T03:01:28.700Z,94371.00
2023-03-26T03:05:28.887Z,94363.00
2023-03-26T03:09:28.890Z,94363.00
2023-03-26T03:13:29.001Z,94358.00
2023-03-26T03:17:29.198Z,94348.00
2023-03-26T03:21:29.340Z,94348.00
2023-03-26T03:25:29.368Z,94350.00
2023-03-26T03:29:29.522Z,94340.00
2023-03-26T03:33:29.600Z,94336.00
2023-03-26T03:37:29.726Z,94330.00
2023-03-26T03:41:29.817Z,94328.00
2023-03-26T03:45:29.953Z,94328.00
2023-03-26T03:49:30.051Z,94336.00
2023-03-26T03:53:30.169Z,94326.00
2023-03-26T03:57:30.303Z,94320.00
2023-03-26T04:01:30.439Z,94312.00
2023-03-26T04:05:30.577Z,94306.00
2023-03-26T04:09:30.670Z,94318.00
2023-03-26T04:13:30.827Z,94310.00
2023-03-26T04:17:31.159Z,94308.00
2023-03-26T04:21:31.128Z,94306.00
2023-03-26T04:25:31.257Z,94303.00
2023-03-26T04:29:31.448Z,94285.00
2023-03-26T04:33:31.555Z,94281.00
2023-03-26T04:37:31.685Z,94279.00
2023-03-26T04:41:31.835Z,94283.00
2023-03-26T04:45:32.024Z,94275.00
2023-03-26T04:49:32.162Z,94263.00
2023-03-26T04:53:32.317Z,94257.00
2023-03-26T04:57:32.518Z,94248.00
2023-03-26T05:01:32.749Z,94248.00
2023-03-26T05:05:32.844Z,94238.00
2023-03-26T05:09:33.058Z,94236.00
2023-03-26T05:13:33.173Z,94236.00
2023-03-26T05:17:33.339Z,94238.00
2023-03-26T05:21:33.539Z,94252.00
2023-03-26T05:25:33.663Z,94250.00
2023-03-26T05:29:33.837Z,94248.00
2023-03-26T05:33:34.137Z,94242.00
2023-03-26T05:37:34.156Z,94240.00
2023-03-26T05:41:34.353Z,94232.00
2023-03-26T05:45:34.526Z,94228.00
2023-03-26T05:49:34.691Z,94216.00
2023-03-26T05:53:34.932Z,94212.00
2023-03-26T05:57:34.979Z,94209.00
2023-03-26T06:01:35.177Z,94197.00
2023-03-26T06:05:35.323Z,94191.00
2023-03-26T06:09:35.476Z,94187.00
2023-03-26T06:13:35.667Z,94177.00
2023-03-26T06:17:35.825Z,94175.00
2023-03-26T06:21:35.928Z,94171.00
2023-03-26T06:25:36.109Z,94165.00
2023-03-26T06:29:36.249Z,94165.00
2023-03-26T06:33:36.403Z,94152.00
2023-03-26T06:37:36.521Z,94163.00
2023-03-26T06:41:36.634Z,94150.00
2023-03-26T06:45:36.834Z,94148.00
2023-03-26T06:49:36.941Z,94142.00
2023-03-26T06:53:37.120Z,94130.00
2023-03-26T06:57:37.263Z,94134.00
2023-03-26T07:01:37.433Z,94124.00
2023-03-26T07:05:37.516Z,94110.00
2023-03-26T07:09:37.643Z,94085.00
2023-03-26T07:13:37.760Z,94073.00
2023-03-26T07:17:37.894Z,94060.00
2023-03-26T07:21:37.902Z,94052.00
2023-03-26T07:25:37.976Z,94042.00
2023-03-26T07:29:38.250Z,94056.00
2023-03-26T07:33:38.136Z,94062.00
2023-03-26T07:37:38.115Z,94056.00
2023-03-26T07:41:38.195Z,94050.00
2023-03-26T07:45:38.326Z,94046.00
2023-03-26T07:49:38.330Z,94040.00
2023-03-26T07:53:38.364Z,94005.00
2023-03-26T07:57:38.433Z,94001.00
2023-03-26T08:01:38.455Z,93969.00
2023-03-26T08:05:38.445Z,93960.00
2023-03-26T08:09:38.468Z,93950.00
2023-03-26T08:13:38.481Z,93942.00
2023-03-26T08:17:38.513Z,93946.00
2023-03-26T08:21:38.484Z,93954.00
2023-03-26T08:25:38.561Z,93946.00
2023-03-26T08:29:38.452Z,93934.00
2023-03-26T08:33:38.578Z,93916.00
2023-03-26T08:37:38.400Z,93901.00
2023-03-26T08:41:38.373Z,93891.00
2023-03-26T08:45:38.452Z,93885.00
2023-03-26T08:49:38.526Z,93881.00
2023-03-26T08:53:38.575Z,93852.00
2023-03-26T08:57:38.691Z,93850.00
2023-03-26T09:01:38.904Z,93846.00
2023-03-26T09:05:39.063Z,93832.00
2023-03-26T09:09:39.306Z,93852.00
2023-03-26T09:13:39.498Z,93844.00
2023-03-26T09:17:39.802Z,93842.00
2023-03-26T09:21:39.927Z,93850.00
2023-03-26T09:25:40.111Z,93854.00
2023-03-26T09:29:40.178Z,93856.00
2023-03-26T09:33:40.364Z,93860.00
2023-03-26T09:37:56.262Z,93850.00
2023-03-26T09:41:41.493Z,93848.00
2023-03-26T09:45:40.491Z,93838.00
2023-03-26T09:49:40.437Z,93828.00
2023-03-26T09:53:40.431Z,93813.00
2023-03-26T09:57:40.403Z,93811.00
2023-03-26T10:01:40.416Z,93803.00
2023-03-26T10:05:40.384Z,93793.00
2023-03-26T10:09:40.269Z,93789.00
2023-03-26T10:13:40.221Z,93791.00
2023-03-26T10:17:40.313Z,93785.00
2023-03-26T10:21:40.166Z,93777.00
2023-03-26T10:25:40.141Z,93770.00
2023-03-26T10:29:40.358Z,93773.00
2023-03-26T10:33:40.567Z,93775.00
2023-03-26T10:37:40.736Z,93777.00
2023-03-26T10:41:40.925Z,93779.00
2023-03-26T10:45:41.159Z,93781.00
2023-03-26T10:49:41.350Z,93775.00
2023-03-26T10:53:41.582Z,93771.00
2023-03-26T10:57:41.804Z,93771.00
2023-03-26T11:01:42.126Z,93773.00
2023-03-26T11:05:42.251Z,93771.00
2023-03-26T11:09:42.371Z,93764.00
2023-03-26T11:13:42.641Z,93756.00
2023-03-26T11:17:42.834Z,93752.00
2023-03-26T11:21:42.952Z,93744.00
2023-03-26T11:25:43.167Z,93736.00
2023-03-26T11:29:43.292Z,93734.00
2023-03-26T11:33:45.413Z,93726.00
2023-03-26T11:37:43.479Z,93715.00
2023-03-26T11:41:43.457Z,93711.00
2023-03-26T11:45:43.423Z,93699.00
2023-03-26T11:49:43.388Z,93689.00
2023-03-26T11:53:43.376Z,93677.00
2023-03-26T11:57:43.294Z,93677.00
2023-03-26T12:01:43.288Z,93673.00
2023-03-26T12:05:43.231Z,93675.00
2023-03-26T12:09:43.241Z,93666.00
2023-03-26T12:13:43.189Z,93658.00
2023-03-26T12:17:43.266Z,93642.00
2023-03-26T12:21:43.375Z,93640.00
2023-03-26T12:25:43.585Z,93640.00
2023-03-26T12:29:43.766Z,93650.00
2023-03-26T12:33:43.976Z,93662.00
2023-03-26T12:37:44.171Z,93666.00
2023-03-26T12:44:45.206Z,93660.00
2023-03-26T12:45:45.370Z,93664.00
2023-03-26T12:49:45.272Z,93662.00
2023-03-26T12:53:44.252Z,93666.00
2023-03-26T12:57:44.216Z,93673.00
2023-03-26T13:01:44.291Z,93689.00
2023-03-26T13:05:44.168Z,93699.00
2023-03-26T13:09:44.117Z,93720.00
2023-03-26T13:13:44.048Z,93730.00
2023-03-26T13:17:44.175Z,93740.00
2023-03-26T13:21:44.388Z,93742.00
2023-03-26T13:25:44.516Z,93746.00
2023-03-26T13:29:44.653Z,93742.00
2023-03-26T13:33:44.883Z,93752.00
2023-03-26T13:37:45.095Z,93754.00
2023-03-26T13:41:45.309Z,93744.00
2023-03-26T13:45:45.525Z,93740.00
2023-03-26T13:49:45.745Z,93744.00
2023-03-26T13:53:46.019Z,93740.00
2023-03-26T13:57:46.176Z,93724.00
2023-03-26T14:01:46.552Z,93724.00
2023-03-26T14:05:46.596Z,93726.00
2023-03-26T14:09:46.587Z,93730.00
2023-03-26T14:13:46.508Z,93736.00
2023-03-26T14:17:46.568Z,93738.00
2023-03-26T14:21:46.455Z,93736.00
2023-03-26T14:25:46.404Z,93736.00
2023-03-26T14:29:57.010Z,93726.00
2023-03-26T14:33:47.325Z,93724.00
2023-03-26T14:37:46.357Z,93715.00
2023-03-26T14:41:46.331Z,93709.00
2023-03-26T14:45:46.312Z,93705.00
2023-03-26T14:49:46.243Z,93695.00
2023-03-26T14:53:46.196Z,93699.00
2023-03-26T14:57:46.201Z,93722.00
2023-03-26T15:01:46.189Z,93717.00
2023-03-26T15:05:46.095Z,93726.00
2023-03-26T15:09:46.062Z,93736.00
2023-03-26T15:13:46.050Z,93734.00
2023-03-26T15:17:46.243Z,93720.00
2023-03-26T15:21:46.183Z,93724.00
2023-03-26T15:25:46.168Z,93726.00
2023-03-26T15:29:46.158Z,93724.00
2023-03-26T15:33:46.111Z,93720.00
2023-03-26T15:37:46.047Z,93701.00
2023-03-26T15:41:46.024Z,93685.00
2023-03-26T15:45:46.057Z,93687.00
2023-03-26T15:49:45.971Z,93668.00
2023-03-26T15:53:45.919Z,93650.00
2023-03-26T15:57:45.873Z,93656.00
2023-03-26T16:01:45.933Z,93660.00
2023-03-26T16:05:45.796Z,93654.00
2023-03-26T16:09:45.779Z,93654.00
2023-03-26T16:13:45.757Z,93660.00
2023-03-26T16:17:45.676Z,93662.00
2023-03-26T16:21:45.697Z,93656.00
2023-03-26T16:25:45.622Z,93664.00
2023-03-26T16:29:45.561Z,93654.00
2023-03-26T16:33:45.567Z,93622.00
2023-03-26T16:37:45.561Z,93620.00
2023-03-26T16:41:45.524Z,93597.00
2023-03-26T16:45:45.436Z,93597.00
2023-03-26T16:49:45.426Z,93587.00
2023-03-26T16:53:45.398Z,93581.00
2023-03-26T16:57:45.364Z,93591.00
2023-03-26T17:01:45.306Z,93597.00
2023-03-26T17:05:45.278Z,93624.00
2023-03-26T17:09:45.230Z,93611.00
2023-03-26T17:13:45.230Z,93611.00
2023-03-26T17:17:45.341Z,93591.00
2023-03-26T17:21:46.359Z,93622.00
2023-03-26T17:25:45.322Z,93622.00
2023-03-26T17:29:45.252Z,93615.00
2023-03-26T17:33:45.335Z,93617.00
2023-03-26T17:37:45.304Z,93622.00
2023-03-26T17:41:45.299Z,93593.00
2023-03-26T17:45:45.378Z,93601.00
2023-03-26T17:49:46.420Z,93585.00
2023-03-26T17:53:45.288Z,93618.00
2023-03-26T17:57:45.278Z,93634.00
2023-03-26T18:01:45.788Z,93646.00
2023-03-26T18:05:45.199Z,93652.00
2023-03-26T18:09:45.129Z,93658.00
2023-03-26T18:13:45.124Z,93662.00
2023-03-26T18:17:45.150Z,93675.00
2023-03-26T18:21:45.685Z,93693.00
2023-03-26T18:25:45.198Z,93646.00
2023-03-26T18:29:45.279Z,93622.00
2023-03-26T18:33:45.362Z,93628.00
2023-03-26T18:37:45.378Z,93638.00
2023-03-26T18:41:45.437Z,93624.00
2023-03-26T18:45:45.568Z,93618.00
2023-03-26T18:49:45.637Z,93618.00
2023-03-26T18:53:45.768Z,93618.00
2023-03-26T18:57:45.863Z,93618.00
2023-03-26T19:01:47.362Z,93624.00
2023-03-26T19:05:46.050Z,93632.00
2023-03-26T19:09:46.182Z,93630.00
2023-03-26T19:13:46.286Z,93618.00
2023-03-26T19:17:46.441Z,93626.00
2023-03-26T19:21:46.504Z,93640.00
2023-03-26T19:25:46.650Z,93640.00
2023-03-26T19:29:46.766Z,93648.00
2023-03-26T19:33:46.885Z,93646.00
2023-03-26T19:37:48.455Z,93648.00
2023-03-26T19:41:47.244Z,93642.00
2023-03-26T19:45:59.675Z,93648.00
2023-03-26T19:49:48.237Z,93640.00
2023-03-26T19:53:47.259Z,93630.00
2023-03-26T19:57:47.177Z,93624.00
2023-03-26T20:01:47.397Z,93626.00
2023-03-26T20:05:47.468Z,93626.00
2023-03-26T20:09:47.585Z,93624.00
2023-03-26T20:13:47.629Z,93618.00
2023-03-26T20:17:47.559Z,93622.00
2023-03-26T20:21:47.506Z,93626.00
2023-03-26T20:25:47.498Z,93630.00
2023-03-26T20:29:47.705Z,93634.00
2023-03-26T20:33:47.864Z,93634.00
2023-03-26T20:37:47.970Z,93632.00
2023-03-26T20:41:48.105Z,93638.00
2023-03-26T20:45:48.265Z,93632.00
2023-03-26T20:49:48.435Z,93630.00
2023-03-26T20:53:48.601Z,93624.00
2023-03-26T20:57:48.825Z,93632.00
2023-03-26T21:01:48.972Z,93634.00
2023-03-26T21:05:49.153Z,93636.00
2023-03-26T21:09:49.301Z,93630.00
2023-03-26T21:13:49.512Z,93632.00
2023-03-26T21:17:49.723Z,93628.00
2023-03-26T21:21:49.870Z,93630.00
2023-03-26T21:25:50.052Z,93630.00
2023-03-26T21:29:50.236Z,93628.00
2023-03-26T21:33:50.472Z,93626.00
2023-03-26T21:37:50.642Z,93618.00
2023-03-26T21:42:04.845Z,93618.00
2023-03-26T21:45:51.795Z,93624.00
2023-03-26T21:49:50.738Z,93613.00
2023-03-26T21:53:50.845Z,93613.00
2023-03-26T21:57:51.052Z,93617.00
2023-03-26T22:01:51.356Z,93615.00
2023-03-26T22:05:51.233Z,93613.00
2023-03-26T22:09:51.230Z,93617.00
2023-03-26T22:13:51.164Z,93613.00
2023-03-26T22:17:51.224Z,93603.00
2023-03-26T22:21:51.101Z,93603.00
2023-03-26T22:25:51.085Z,93601.00
2023-03-26T22:29:50.999Z,93597.00
2023-03-26T22:33:50.976Z,93593.00
2023-03-26T22:37:50.940Z,93597.00
2023-03-26T22:41:50.939Z,93593.00
2023-03-26T22:45:50.879Z,93581.00
2023-03-26T22:49:50.832Z,93591.00
2023-03-26T22:53:50.850Z,93595.00
2023-03-26T22:57:50.771Z,93579.00
2023-03-26T23:01:50.811Z,93579.00
2023-03-26T23:05:50.684Z,93575.00
2023-03-26T23:09:50.671Z,93581.00
2023-03-26T23:13:50.604Z,93587.00
2023-03-26T23:17:54.377Z,93585.00
2023-03-26T23:21:50.600Z,93587.00
2023-03-26T23:25:50.520Z,93587.00
2023-03-26T23:29:50.496Z,93579.00
2023-03-26T23:33:50.599Z,93579.00
2023-03-26T23:37:50.699Z,93575.00
2023-03-26T23:41:50.667Z,93579.00
2023-03-26T23:45:50.678Z,93575.00
2023-03-26T23:49:50.592Z,93577.00
2023-03-26T23:53:50.529Z,93579.00
2023-03-26T23:57:50.468Z,93587.00
